首页
METAR-TAF:

METAR-TAF

机场 :

Creech_Air_Force_Base

Indian Springs, 内华达州, 美国

纬度: 36-32N, 经度: 115-54W, 海拔: 952米

当前天气观测

该预报发布于40分钟前的07:58 UTC
静风
温度 3°C
湿度 81%
气压 1023 hPa
能見度: 16.1公里
天空无云

METAR: KINS 120758Z AUTO 00000KT 10SM CLR 03/00 A3022 RMK AO2 SLP226 T00280004 401300006 $

时间: 00:38 (08:38 UTC)

预报

该预报发布于3小时和40分钟前的04:58 UTC
预报有效从12日的 05点(UTC)到 13日的 11点(UTC)
风速6节,风向多变
能见度10公里或以上
多云层高于12000英尺
阴天层高于25000英尺
成为
从 12日的 14点(UTC)到 12日的 15点(UTC)
风速6节,风向多变
能见度10公里或以上
散云层高于25000英尺

TAF: KINS 120458Z 1205/1311 VRB06KT 9999 BKN120 OVC250 QNH3023INS BECMG 1214/1215 VRB06KT 9999 SCT250 QNH3020INS TX12/1223Z TN04/1215Z

超过4000个机场的气象观测和天气预报(METAR&TAF报告)。

可查询的气象台以黄色和红色小点在地图上表示。

将鼠标移到小点上方,可查看气象台名称。

然后点击查看天气观测和预报。

如需切换地图:点击带黑十字的绿色按钮放大地图;点击带横线的绿色按钮缩小地图;或者点击绿色箭头查看邻近地区的地图。


METAR-TAF: